createdAt,value
2023-03-22T00:01:23.221Z,21.60
2023-03-22T00:03:51.427Z,18.98
2023-03-22T00:06:18.354Z,17.50
2023-03-22T00:08:47.902Z,18.48
2023-03-22T00:11:14.220Z,18.15
2023-03-22T00:13:42.793Z,18.23
2023-03-22T00:16:10.853Z,19.52
2023-03-22T00:18:37.404Z,20.13
2023-03-22T00:21:03.906Z,18.52
2023-03-22T00:23:30.319Z,18.77
2023-03-22T00:25:56.701Z,18.80
2023-03-22T00:28:24.189Z,18.77
2023-03-22T00:30:56.364Z,21.40
2023-03-22T00:33:26.904Z,18.95
2023-03-22T00:36:02.063Z,20.17
2023-03-22T00:38:42.410Z,20.88
2023-03-22T00:41:16.274Z,18.55
2023-03-22T00:43:45.220Z,19.55
2023-03-22T00:46:12.451Z,19.95
2023-03-22T00:48:39.334Z,18.92
2023-03-22T00:51:06.715Z,22.50
2023-03-22T00:53:34.174Z,22.45
2023-03-22T00:56:00.679Z,21.98
2023-03-22T00:58:31.327Z,20.50
2023-03-22T01:00:58.063Z,19.95
2023-03-22T01:03:24.669Z,23.25
2023-03-22T01:05:55.385Z,22.02
2023-03-22T01:08:23.309Z,24.45
2023-03-22T01:10:50.567Z,22.00
2023-03-22T01:13:18.151Z,26.02
2023-03-22T01:15:45.110Z,23.77
2023-03-22T01:18:11.583Z,26.80
2023-03-22T01:20:38.706Z,21.73
2023-03-22T01:23:05.361Z,21.75
2023-03-22T01:25:31.812Z,25.77
2023-03-22T01:27:58.444Z,24.92
2023-03-22T01:30:25.061Z,22.40
2023-03-22T01:32:51.965Z,22.35
2023-03-22T01:35:18.396Z,27.27
2023-03-22T01:37:45.078Z,26.50
2023-03-22T01:40:13.668Z,26.77
2023-03-22T01:42:40.435Z,25.90
2023-03-22T01:45:15.255Z,24.08
2023-03-22T01:47:48.501Z,27.35
2023-03-22T01:50:16.774Z,24.48
2023-03-22T01:52:45.419Z,33.53
2023-03-22T01:55:22.611Z,23.75
2023-03-22T01:57:55.617Z,24.55
2023-03-22T02:00:35.265Z,28.23
2023-03-22T02:03:24.628Z,24.73
2023-03-22T02:05:52.451Z,25.52
2023-03-22T02:08:21.212Z,24.08
2023-03-22T02:11:01.919Z,20.98
2023-03-22T02:13:49.454Z,22.42
2023-03-22T02:17:06.226Z,21.75
2023-03-22T02:19:42.384Z,30.40
2023-03-22T02:22:21.783Z,21.63
2023-03-22T02:25:20.780Z,19.67
2023-03-22T02:28:24.954Z,19.70
2023-03-22T02:30:51.265Z,19.92
2023-03-22T02:33:59.478Z,27.30
2023-03-22T02:36:48.052Z,23.08
2023-03-22T02:39:52.948Z,24.17
2023-03-22T02:42:28.519Z,27.25
2023-03-22T02:45:14.068Z,29.63
2023-03-22T02:47:49.811Z,32.25
2023-03-22T02:50:27.279Z,27.60
2023-03-22T02:53:01.482Z,25.20
2023-03-22T02:55:39.331Z,27.70
2023-03-22T02:58:18.104Z,30.95
2023-03-22T03:00:49.271Z,31.95
2023-03-22T03:03:18.256Z,28.98
2023-03-22T03:05:56.210Z,27.17
2023-03-22T03:08:25.172Z,30.02
2023-03-22T03:10:53.331Z,28.90
2023-03-22T03:13:19.751Z,28.50
2023-03-22T03:15:54.245Z,30.23
2023-03-22T03:18:35.508Z,32.40
2023-03-22T03:21:22.131Z,27.67
2023-03-22T03:24:07.471Z,31.00
2023-03-22T03:26:48.974Z,33.95
2023-03-22T03:29:25.038Z,33.70
2023-03-22T03:32:17.201Z,41.08
2023-03-22T03:34:51.237Z,41.28
2023-03-22T03:37:22.620Z,37.88
2023-03-22T03:40:06.952Z,34.25
2023-03-22T03:42:38.175Z,33.25
2023-03-22T03:45:06.576Z,35.83
2023-03-22T03:47:34.538Z,34.45
2023-03-22T03:50:01.425Z,36.10
2023-03-22T03:52:29.205Z,35.50
2023-03-22T03:54:55.661Z,32.28
2023-03-22T03:57:27.985Z,22.80
2023-03-22T03:59:54.486Z,30.45
2023-03-22T04:02:41.284Z,29.08
2023-03-22T04:05:14.919Z,32.28
2023-03-22T04:07:41.706Z,30.08
2023-03-22T04:10:08.518Z,30.15
2023-03-22T04:12:34.902Z,29.88
2023-03-22T04:15:12.296Z,25.98
2023-03-22T04:17:39.628Z,24.33
2023-03-22T04:20:10.739Z,22.40
2023-03-22T04:22:38.570Z,22.90
2023-03-22T04:25:11.798Z,20.42
2023-03-22T04:27:42.584Z,20.05
2023-03-22T04:30:19.655Z,19.27
2023-03-22T04:33:07.189Z,19.55
2023-03-22T04:36:10.118Z,20.42
2023-03-22T04:38:48.004Z,19.75
2023-03-22T04:41:19.268Z,21.27
2023-03-22T04:43:50.975Z,18.63
2023-03-22T04:46:17.802Z,23.13
2023-03-22T04:48:50.033Z,24.05
2023-03-22T04:51:17.208Z,26.83
2023-03-22T04:54:01.568Z,24.15
2023-03-22T04:56:28.029Z,24.63
2023-03-22T04:58:54.499Z,23.75
2023-03-22T05:01:20.909Z,24.15
2023-03-22T05:03:54.701Z,24.67
2023-03-22T05:06:22.640Z,24.73
2023-03-22T05:09:01.641Z,24.00
2023-03-22T05:11:28.397Z,22.10
2023-03-22T05:14:11.868Z,23.17
2023-03-22T05:16:40.525Z,22.35
2023-03-22T05:19:13.931Z,26.13
2023-03-22T05:21:44.081Z,21.92
2023-03-22T05:24:11.115Z,22.02
2023-03-22T05:26:42.100Z,22.42
2023-03-22T05:29:11.287Z,22.80
2023-03-22T05:31:50.542Z,21.35
2023-03-22T05:34:16.978Z,24.63
2023-03-22T05:36:43.413Z,22.05
2023-03-22T05:39:18.852Z,20.95
2023-03-22T05:41:45.978Z,22.13
2023-03-22T05:44:12.600Z,21.70
2023-03-22T05:46:45.530Z,23.88
2023-03-22T05:49:27.506Z,20.17
2023-03-22T05:51:55.142Z,21.25
2023-03-22T05:54:24.232Z,21.00
2023-03-22T05:56:52.725Z,21.20
2023-03-22T05:59:20.883Z,19.83
2023-03-22T06:01:47.552Z,21.95
2023-03-22T06:04:20.941Z,22.60
2023-03-22T06:07:00.148Z,23.48
2023-03-22T06:09:35.436Z,21.83
2023-03-22T06:12:06.075Z,22.13
2023-03-22T06:14:32.516Z,21.02
2023-03-22T06:17:25.480Z,21.70
2023-03-22T06:19:53.350Z,20.73
2023-03-22T06:22:21.200Z,20.90
2023-03-22T06:24:49.103Z,23.58
2023-03-22T06:27:21.937Z,19.90
2023-03-22T06:29:50.726Z,21.73
2023-03-22T06:32:23.432Z,22.60
2023-03-22T06:34:56.428Z,32.35
2023-03-22T06:37:24.361Z,30.40
2023-03-22T06:39:51.876Z,29.60
2023-03-22T06:42:20.062Z,36.50
2023-03-22T06:44:52.897Z,40.75
2023-03-22T06:47:28.732Z,38.47
2023-03-22T06:50:01.389Z,40.40
2023-03-22T06:52:47.955Z,35.88
2023-03-22T07:31:18.784Z,19.83
2023-03-22T07:34:05.948Z,15.85
2023-03-22T07:36:40.919Z,18.13
2023-03-22T07:39:10.343Z,15.07
2023-03-22T07:41:41.313Z,21.25
2023-03-22T07:44:28.162Z,15.77
2023-03-22T07:47:22.125Z,16.70
2023-03-22T07:50:13.485Z,15.90
2023-03-22T07:52:41.556Z,16.58
2023-03-22T07:55:09.641Z,16.05
2023-03-22T07:57:36.859Z,17.60
2023-03-22T08:00:06.007Z,14.73
2023-03-22T08:03:05.794Z,16.13
2023-03-22T08:05:58.774Z,16.60
2023-03-22T08:08:26.326Z,17.77
2023-03-22T08:10:52.749Z,13.93
2023-03-22T08:13:19.375Z,15.05
2023-03-22T08:15:45.786Z,13.82
2023-03-22T08:18:12.478Z,13.20
2023-03-22T08:20:41.180Z,12.32
2023-03-22T08:23:16.924Z,11.02
2023-03-22T08:26:02.839Z,11.63
2023-03-22T08:28:29.229Z,10.25
2023-03-22T08:30:55.563Z,9.52
2023-03-22T08:33:23.675Z,11.85
2023-03-22T08:35:50.931Z,10.60
2023-03-22T08:38:18.118Z,14.50
2023-03-22T08:40:49.608Z,11.25
2023-03-22T08:43:21.108Z,9.75
2023-03-22T08:45:47.731Z,8.30
2023-03-22T08:48:16.208Z,7.72
2023-03-22T08:51:06.577Z,6.38
2023-03-22T08:53:48.865Z,7.82
2023-03-22T08:59:18.436Z,7.47
2023-03-22T09:01:59.936Z,5.47
2023-03-22T09:04:27.152Z,8.10
2023-03-22T09:06:53.624Z,5.43
2023-03-22T09:09:20.188Z,7.68
2023-03-22T09:11:49.988Z,6.28
2023-03-22T09:14:16.452Z,6.47
2023-03-22T09:16:43.185Z,5.45
2023-03-22T09:19:10.283Z,4.65
2023-03-22T09:21:36.706Z,6.75
2023-03-22T09:24:29.142Z,5.70
2023-03-22T09:26:59.471Z,5.70
2023-03-22T09:29:26.112Z,5.05
2023-03-22T09:31:53.447Z,3.85
2023-03-22T09:34:23.363Z,2.75
2023-03-22T09:36:52.891Z,5.68
2023-03-22T09:39:23.251Z,2.42
2023-03-22T09:41:57.286Z,4.63
2023-03-22T09:44:44.959Z,3.42
2023-03-22T09:47:21.516Z,4.78
2023-03-22T09:49:55.039Z,2.75
2023-03-22T09:52:21.698Z,2.85
2023-03-22T09:54:53.089Z,3.58
2023-03-22T09:57:38.890Z,6.97
2023-03-22T10:00:26.388Z,7.60
2023-03-22T10:03:12.226Z,4.65
2023-03-22T10:05:47.199Z,5.03
2023-03-22T10:08:35.594Z,3.83
2023-03-22T10:11:02.524Z,2.55
2023-03-22T10:13:41.844Z,4.47
2023-03-22T10:16:13.601Z,4.43
2023-03-22T10:18:47.125Z,3.33
2023-03-22T10:21:17.171Z,4.00
2023-03-22T10:23:52.109Z,4.78
2023-03-22T10:26:24.477Z,3.70
2023-03-22T10:29:06.049Z,2.70
2023-03-22T10:31:33.987Z,3.20
2023-03-22T10:34:29.207Z,4.97
2023-03-22T10:36:56.010Z,5.82
2023-03-22T10:39:31.180Z,3.80
2023-03-22T10:42:01.736Z,5.43
2023-03-22T10:44:34.595Z,3.92
2023-03-22T10:47:07.667Z,3.45
2023-03-22T10:52:27.489Z,2.72
2023-03-22T10:54:57.192Z,1.70
2023-03-22T10:57:28.482Z,2.95
2023-03-22T10:59:58.396Z,3.60
2023-03-22T11:02:31.201Z,3.50
2023-03-22T11:05:03.763Z,1.55
2023-03-22T11:07:39.884Z,2.35
2023-03-22T11:10:09.244Z,5.20
2023-03-22T11:12:39.929Z,2.20
2023-03-22T11:15:07.321Z,1.50
2023-03-22T11:17:37.757Z,1.85
2023-03-22T11:20:10.502Z,2.22
2023-03-22T11:22:42.534Z,1.80
2023-03-22T11:25:21.643Z,1.85
2023-03-22T11:28:04.855Z,1.50
2023-03-22T11:33:16.680Z,1.92
2023-03-22T11:35:46.389Z,3.88
2023-03-22T11:38:40.554Z,1.98
2023-03-22T11:41:10.705Z,1.92
2023-03-22T11:43:48.096Z,2.20
2023-03-22T11:46:19.060Z,3.08
2023-03-22T11:48:48.549Z,1.80
2023-03-22T11:51:37.724Z,2.42
2023-03-22T11:54:13.639Z,1.40
2023-03-22T11:56:43.404Z,2.17
2023-03-22T11:59:24.022Z,1.77
2023-03-22T12:02:31.147Z,2.78
2023-03-22T12:05:14.734Z,1.40
2023-03-22T12:07:42.285Z,2.08
2023-03-22T12:10:35.160Z,3.33
2023-03-22T12:13:48.311Z,2.47
2023-03-22T12:16:24.768Z,2.42
2023-03-22T12:19:20.803Z,1.00
2023-03-22T12:21:49.894Z,3.03
2023-03-22T12:24:26.198Z,2.05
2023-03-22T12:26:57.963Z,4.85
2023-03-22T12:29:26.953Z,1.80
2023-03-22T12:31:59.716Z,3.20
2023-03-22T12:34:35.166Z,1.35
2023-03-22T12:37:05.132Z,1.92
2023-03-22T12:39:46.053Z,2.60
2023-03-22T12:42:25.884Z,2.25
2023-03-22T12:45:04.734Z,3.25
2023-03-22T12:47:41.494Z,2.42
2023-03-22T12:50:21.681Z,1.48
2023-03-22T12:52:51.089Z,1.60
2023-03-22T12:55:28.373Z,1.02
2023-03-22T12:57:55.512Z,2.05
2023-03-22T13:00:33.815Z,2.25
2023-03-22T13:03:16.471Z,2.67
2023-03-22T13:05:45.625Z,1.88
2023-03-22T13:08:11.990Z,2.17
2023-03-22T13:10:47.515Z,2.75
2023-03-22T13:13:23.662Z,1.13
2023-03-22T13:16:08.454Z,2.53
2023-03-22T13:18:37.865Z,2.88
2023-03-22T13:21:24.645Z,1.25
2023-03-22T13:24:02.402Z,2.20
2023-03-22T13:26:37.395Z,1.25
2023-03-22T13:29:11.214Z,1.77
2023-03-22T13:31:37.816Z,1.25
2023-03-22T13:34:11.678Z,1.65
2023-03-22T13:36:38.210Z,1.42
2023-03-22T13:39:10.047Z,1.67
2023-03-22T13:41:36.642Z,1.25
2023-03-22T13:44:20.760Z,2.50
2023-03-22T13:46:50.892Z,1.73
2023-03-22T13:49:21.651Z,1.77
2023-03-22T13:51:49.549Z,2.20
2023-03-22T13:54:20.930Z,2.40
2023-03-22T13:57:00.070Z,3.53
2023-03-22T13:59:33.991Z,1.33
2023-03-22T14:02:19.453Z,1.75
2023-03-22T14:04:51.798Z,3.47
2023-03-22T14:07:23.975Z,1.95
2023-03-22T14:09:57.569Z,1.33
2023-03-22T14:12:46.074Z,1.70
2023-03-22T14:15:17.622Z,1.55
2023-03-22T14:17:50.611Z,2.35
2023-03-22T14:20:20.566Z,3.50
